Time;durP1;ratioP1;P1;durP2;ratioP2;P2;SDS_P1;SDS_P2;PMS_P1;PMS_P2;Temp;Humidity;BMP_temperature;BMP_pressure;BME280_temperature;BME280_humidity;BME280_pressure;Samples;Min_cycle;Max_cycle;Signal;HPM_P1;HPM_P2
2022/01/23 00:04:33;;;;;;;6.35;5.82;;;;;;;;;;10485329;28;20214;-80
2022/01/23 00:09:34;;;;;;;7.45;6.63;;;;;;;;;;10472055;28;20189;-79
2022/01/23 00:19:59;;;;;;;9.20;6.85;;;;;;;;;;10474181;28;20267;-79
2022/01/23 00:30:31;;;;;;;8.25;7.45;;;;;;;;;;10475146;28;20262;-79
2022/01/23 00:35:33;;;;;;;7.97;7.20;;;;;;;;;;10463816;28;20200;-79
2022/01/23 00:40:35;;;;;;;8.13;7.40;;;;;;;;;;10468636;28;20826;-78
2022/01/23 00:45:43;;;;;;;9.85;7.53;;;;;;;;;;10475680;28;20678;-78
2022/01/23 00:50:45;;;;;;;9.20;8.40;;;;;;;;;;10492847;28;20559;-77
2022/01/23 00:55:47;;;;;;;8.20;7.40;;;;;;;;;;10488866;28;20203;-77
2022/01/23 01:00:48;;;;;;;8.40;7.50;;;;;;;;;;10463306;28;20213;-77
2022/01/23 01:05:49;;;;;;;8.50;7.63;;;;;;;;;;10477382;28;20285;-78
2022/01/23 01:16:38;;;;;;;8.02;7.22;;;;;;;;;;10468558;28;20213;-78
2022/01/23 01:32:06;;;;;;;8.80;6.72;;;;;;;;;;10488310;28;20206;-78
2022/01/23 01:37:09;;;;;;;8.40;7.45;;;;;;;;;;10479584;28;20222;-78
2022/01/23 01:42:11;;;;;;;7.68;6.72;;;;;;;;;;10482716;28;20237;-79
2022/01/23 01:47:12;;;;;;;8.52;6.75;;;;;;;;;;10438632;28;20213;-79
2022/01/23 01:52:17;;;;;;;7.20;6.55;;;;;;;;;;10437631;28;20761;-78
2022/01/23 01:57:18;;;;;;;6.70;6.10;;;;;;;;;;10421853;28;20205;-79
2022/01/23 02:18:23;;;;;;;7.82;7.03;;;;;;;;;;10428408;28;20195;-80
2022/01/23 02:23:55;;;;;;;8.63;7.70;;;;;;;;;;10431653;28;20190;-79
2022/01/23 02:55:42;;;;;;;8.70;7.60;;;;;;;;;;10429836;28;20202;-77
2022/01/23 03:01:18;;;;;;;11.20;7.60;;;;;;;;;;10442888;28;20269;-78
2022/01/23 03:33:28;;;;;;;7.60;6.35;;;;;;;;;;10434632;28;20212;-79
2022/01/23 03:38:29;;;;;;;7.20;5.82;;;;;;;;;;10441023;28;20565;-79
2022/01/23 03:43:34;;;;;;;9.00;6.90;;;;;;;;;;10421303;28;20224;-79
2022/01/23 03:53:45;;;;;;;6.03;5.45;;;;;;;;;;10423356;28;20285;-79
2022/01/23 03:58:46;;;;;;;6.13;5.57;;;;;;;;;;10419757;28;20264;-79
2022/01/23 04:03:56;;;;;;;6.05;5.47;;;;;;;;;;10419638;28;20198;-79
2022/01/23 04:08:58;;;;;;;5.47;5.03;;;;;;;;;;10429090;28;20206;-77
2022/01/23 04:14:07;;;;;;;9.10;5.57;;;;;;;;;;10435799;28;20830;-77
2022/01/23 04:35:21;;;;;;;6.20;5.60;;;;;;;;;;10424165;28;20206;-77
2022/01/23 04:45:48;;;;;;;6.65;5.72;;;;;;;;;;10416161;28;20210;-79
2022/01/23 05:07:00;;;;;;;6.43;5.82;;;;;;;;;;10425039;28;20218;-79
2022/01/23 05:12:27;;;;;;;6.88;5.75;;;;;;;;;;10430915;28;20198;-78
2022/01/23 05:17:29;;;;;;;5.82;5.35;;;;;;;;;;10398912;28;21051;-78
2022/01/23 05:22:38;;;;;;;7.82;6.40;;;;;;;;;;10436392;28;20298;-78
2022/01/23 05:27:39;;;;;;;7.35;6.30;;;;;;;;;;10439143;28;20214;-78
2022/01/23 05:32:41;;;;;;;7.82;7.03;;;;;;;;;;10438949;28;20222;-78
2022/01/23 05:37:43;;;;;;;11.25;7.72;;;;;;;;;;10419009;28;20742;-78
2022/01/23 05:42:49;;;;;;;13.40;7.53;;;;;;;;;;10408498;28;20291;-78
2022/01/23 05:47:50;;;;;;;9.65;8.43;;;;;;;;;;10417851;28;20228;-79
2022/01/23 05:53:10;;;;;;;9.05;8.15;;;;;;;;;;10422783;28;20198;-79
2022/01/23 05:58:22;;;;;;;12.07;8.35;;;;;;;;;;10407795;28;20197;-79
2022/01/23 06:03:25;;;;;;;12.48;9.43;;;;;;;;;;10424576;28;21067;-79
2022/01/23 06:08:37;;;;;;;14.40;7.65;;;;;;;;;;10429072;28;20760;-79
2022/01/23 06:13:38;;;;;;;10.77;7.90;;;;;;;;;;10433867;28;20217;-78
2022/01/23 06:18:44;;;;;;;11.02;8.50;;;;;;;;;;10427603;28;20219;-78
2022/01/23 06:24:29;;;;;;;10.20;7.75;;;;;;;;;;10446602;28;20277;-79
2022/01/23 06:30:01;;;;;;;8.68;6.68;;;;;;;;;;10433482;28;20802;-78
2022/01/23 06:35:02;;;;;;;9.25;7.22;;;;;;;;;;10432748;28;20214;-79
2022/01/23 06:40:03;;;;;;;9.05;7.03;;;;;;;;;;10435650;28;20202;-79
2022/01/23 06:45:27;;;;;;;7.90;6.25;;;;;;;;;;10453075;28;20225;-77
2022/01/23 06:50:29;;;;;;;9.88;6.07;;;;;;;;;;10416400;28;20202;-78
2022/01/23 06:55:30;;;;;;;7.80;6.07;;;;;;;;;;10430974;28;20202;-78
2022/01/23 07:00:34;;;;;;;7.80;5.80;;;;;;;;;;10437362;28;20657;-78
2022/01/23 07:06:01;;;;;;;6.45;5.55;;;;;;;;;;10431971;28;20690;-79
2022/01/23 07:11:32;;;;;;;7.38;5.38;;;;;;;;;;10426747;28;20281;-78
2022/01/23 07:16:51;;;;;;;6.85;5.90;;;;;;;;;;10427414;28;20201;-79
2022/01/23 07:22:00;;;;;;;6.95;6.10;;;;;;;;;;10425219;28;20190;-79
2022/01/23 07:27:12;;;;;;;8.50;6.90;;;;;;;;;;10412159;28;20206;-78
2022/01/23 07:32:13;;;;;;;7.43;6.60;;;;;;;;;;10422784;28;20213;-79
2022/01/23 07:37:15;;;;;;;7.90;6.25;;;;;;;;;;10425184;28;20197;-79
2022/01/23 07:42:26;;;;;;;7.38;6.40;;;;;;;;;;10418463;28;20300;-78
2022/01/23 07:47:36;;;;;;;13.63;7.65;;;;;;;;;;10443654;28;20261;-78
2022/01/23 07:52:57;;;;;;;9.43;7.60;;;;;;;;;;10422436;28;20603;-78
2022/01/23 07:58:14;;;;;;;8.93;6.95;;;;;;;;;;10431071;28;20863;-78
2022/01/23 08:03:33;;;;;;;11.05;7.10;;;;;;;;;;10440496;28;20217;-78
2022/01/23 08:08:55;;;;;;;8.60;7.25;;;;;;;;;;10457557;28;20205;-77
2022/01/23 08:14:01;;;;;;;11.73;7.63;;;;;;;;;;10465053;28;20193;-77
2022/01/23 08:19:02;;;;;;;10.10;7.53;;;;;;;;;;10483596;28;20201;-80
2022/01/23 08:24:03;;;;;;;9.27;7.57;;;;;;;;;;10480573;28;20205;-78
2022/01/23 08:29:05;;;;;;;10.45;7.57;;;;;;;;;;10467670;28;20214;-80
2022/01/23 08:34:06;;;;;;;9.90;7.55;;;;;;;;;;10466401;28;20306;-78
2022/01/23 08:39:07;;;;;;;9.73;7.40;;;;;;;;;;10471266;28;20206;-77
2022/01/23 08:44:08;;;;;;;11.27;7.53;;;;;;;;;;10459259;28;20234;-79
2022/01/23 08:49:10;;;;;;;8.50;7.18;;;;;;;;;;10465579;28;20296;-78
2022/01/23 08:54:11;;;;;;;9.77;7.90;;;;;;;;;;10465540;28;20733;-78
2022/01/23 08:59:12;;;;;;;12.10;6.68;;;;;;;;;;10468018;28;20294;-79
2022/01/23 09:04:15;;;;;;;7.80;6.57;;;;;;;;;;10470002;28;20228;-79
2022/01/23 09:09:20;;;;;;;8.82;6.25;;;;;;;;;;10465614;28;20677;-78
2022/01/23 09:14:21;;;;;;;7.03;6.35;;;;;;;;;;10487196;28;20190;-79
2022/01/23 09:19:23;;;;;;;6.85;5.75;;;;;;;;;;10473113;28;20224;-78
2022/01/23 09:24:25;;;;;;;5.60;5.10;;;;;;;;;;10462372;28;21272;-78
2022/01/23 09:29:35;;;;;;;5.60;5.10;;;;;;;;;;10479179;28;20312;-79
2022/01/23 09:34:37;;;;;;;5.35;4.95;;;;;;;;;;10476405;28;20699;-78
2022/01/23 09:39:39;;;;;;;4.85;4.55;;;;;;;;;;10457773;28;20977;-78
2022/01/23 09:44:47;;;;;;;4.85;4.45;;;;;;;;;;10422782;28;20349;-78
2022/01/23 09:49:49;;;;;;;4.65;4.35;;;;;;;;;;10425473;28;20968;-78
2022/01/23 09:54:57;;;;;;;4.82;4.43;;;;;;;;;;10447466;28;20197;-78
2022/01/23 09:59:59;;;;;;;3.47;3.38;;;;;;;;;;10409479;28;20205;-77
2022/01/23 10:05:00;;;;;;;3.63;3.42;;;;;;;;;;10452419;28;20218;-81
2022/01/23 10:10:13;;;;;;;4.68;4.38;;;;;;;;;;10445173;28;20261;-81
2022/01/23 10:15:14;;;;;;;3.92;3.72;;;;;;;;;;10452514;28;20202;-79
2022/01/23 10:20:15;;;;;;;3.95;3.75;;;;;;;;;;10445381;28;20191;-78
2022/01/23 10:25:21;;;;;;;8.05;7.25;;;;;;;;;;10442211;28;20225;-79
2022/01/23 10:30:24;;;;;;;5.35;5.00;;;;;;;;;;10466643;28;20193;-82
2022/01/23 10:35:25;;;;;;;4.57;4.28;;;;;;;;;;10444204;28;20226;-79
2022/01/23 10:40:33;;;;;;;3.67;3.58;;;;;;;;;;10416724;28;20260;-80
2022/01/23 10:51:15;;;;;;;3.67;3.38;;;;;;;;;;10438278;28;20182;-78
2022/01/23 10:56:16;;;;;;;2.67;2.58;;;;;;;;;;10451836;28;20199;-80
2022/01/23 11:01:17;;;;;;;2.10;2.00;;;;;;;;;;10444967;28;20340;-80
2022/01/23 11:06:18;;;;;;;1.67;1.55;;;;;;;;;;10448629;28;20210;-79
2022/01/23 11:11:24;;;;;;;3.08;2.60;;;;;;;;;;10436330;28;20297;-81
2022/01/23 11:22:03;;;;;;;1.92;1.92;;;;;;;;;;10436678;28;20203;-80
2022/01/23 11:27:07;;;;;;;2.70;2.50;;;;;;;;;;10427000;28;20231;-78
2022/01/23 11:32:08;;;;;;;2.20;2.20;;;;;;;;;;10447362;28;20294;-79
2022/01/23 11:37:11;;;;;;;1.75;1.70;;;;;;;;;;10431420;28;20205;-80
2022/01/23 11:58:32;;;;;;;2.58;2.47;;;;;;;;;;10435880;28;20298;-81
2022/01/23 12:03:33;;;;;;;2.78;2.50;;;;;;;;;;10421435;28;20221;-80
2022/01/23 12:08:35;;;;;;;2.63;2.47;;;;;;;;;;10418505;28;20285;-80
2022/01/23 12:18:40;;;;;;;2.80;2.78;;;;;;;;;;10451684;28;20281;-81
2022/01/23 12:24:00;;;;;;;3.20;3.10;;;;;;;;;;10423040;28;20201;-80
2022/01/23 12:29:12;;;;;;;2.92;2.80;;;;;;;;;;10430168;28;20240;-80
2022/01/23 12:34:14;;;;;;;2.72;2.63;;;;;;;;;;10424633;28;20217;-80
2022/01/23 12:39:18;;;;;;;2.88;2.67;;;;;;;;;;10439559;28;20224;-79
2022/01/23 12:44:26;;;;;;;3.60;3.30;;;;;;;;;;10436948;28;20882;-79
2022/01/23 12:49:30;;;;;;;4.88;3.58;;;;;;;;;;10431684;28;20217;-79
2022/01/23 12:54:33;;;;;;;3.35;3.15;;;;;;;;;;10431037;28;20202;-79
2022/01/23 12:59:35;;;;;;;3.88;3.78;;;;;;;;;;10470373;28;20194;-79
2022/01/23 13:04:56;;;;;;;3.47;3.28;;;;;;;;;;10474375;28;20273;-80
2022/01/23 13:10:04;;;;;;;1.92;1.90;;;;;;;;;;10462701;28;20201;-80
2022/01/23 13:31:08;;;;;;;1.80;1.80;;;;;;;;;;10470408;28;20216;-79
2022/01/23 13:36:11;;;;;;;2.03;1.92;;;;;;;;;;10467083;28;20717;-80
2022/01/23 13:41:22;;;;;;;1.50;1.50;;;;;;;;;;10468646;28;20230;-80
2022/01/23 13:52:00;;;;;;;2.15;1.27;;;;;;;;;;10486324;28;20338;-80
2022/01/23 14:02:27;;;;;;;1.88;1.77;;;;;;;;;;10489654;28;20216;-81
2022/01/23 14:07:29;;;;;;;1.58;1.58;;;;;;;;;;10464308;28;20205;-78
2022/01/23 14:12:32;;;;;;;1.95;1.63;;;;;;;;;;10477954;28;20182;-80
2022/01/23 14:17:39;;;;;;;2.42;1.38;;;;;;;;;;10492678;28;20198;-80
2022/01/23 14:22:42;;;;;;;1.58;1.58;;;;;;;;;;10491901;28;20201;-80
2022/01/23 14:27:47;;;;;;;1.88;1.77;;;;;;;;;;10480663;28;20202;-81
2022/01/23 14:32:52;;;;;;;2.97;2.78;;;;;;;;;;10450477;28;20213;-80
2022/01/23 14:37:53;;;;;;;2.63;2.50;;;;;;;;;;10472535;28;20201;-81
2022/01/23 14:43:08;;;;;;;4.13;3.72;;;;;;;;;;10490436;28;20221;-81
2022/01/23 14:48:10;;;;;;;5.10;3.13;;;;;;;;;;10455374;28;20274;-78
2022/01/23 14:53:13;;;;;;;3.15;2.97;;;;;;;;;;10468703;28;20190;-80
2022/01/23 14:58:18;;;;;;;3.20;3.10;;;;;;;;;;10473000;28;20250;-80
2022/01/23 15:03:20;;;;;;;3.50;2.53;;;;;;;;;;10477658;28;20209;-81
2022/01/23 15:08:24;;;;;;;3.95;3.50;;;;;;;;;;10464751;28;20278;-80
2022/01/23 15:13:25;;;;;;;4.13;3.65;;;;;;;;;;10492352;28;20933;-80
2022/01/23 15:18:26;;;;;;;3.03;2.83;;;;;;;;;;10495147;28;20194;-79
2022/01/23 15:23:27;;;;;;;3.78;3.47;;;;;;;;;;10460795;28;21265;-82
2022/01/23 15:28:28;;;;;;;5.00;3.55;;;;;;;;;;10466588;28;20694;-80
2022/01/23 15:33:30;;;;;;;3.97;3.00;;;;;;;;;;10480897;28;20233;-81
2022/01/23 15:38:31;;;;;;;3.72;3.35;;;;;;;;;;10487795;28;20193;-81
2022/01/23 15:43:33;;;;;;;4.07;3.65;;;;;;;;;;10447517;28;20280;-80
2022/01/23 15:48:34;;;;;;;6.28;4.03;;;;;;;;;;10407757;28;20240;-78
2022/01/23 15:53:35;;;;;;;4.93;3.85;;;;;;;;;;10418527;28;20200;-79
2022/01/23 15:58:36;;;;;;;8.05;5.20;;;;;;;;;;10431912;28;20206;-80
2022/01/23 16:03:37;;;;;;;8.10;5.60;;;;;;;;;;10407253;28;20210;-81
2022/01/23 16:08:39;;;;;;;10.35;6.78;;;;;;;;;;10404246;28;20217;-80
2022/01/23 16:13:41;;;;;;;12.07;7.78;;;;;;;;;;10399379;28;20289;-78
2022/01/23 16:18:42;;;;;;;13.23;9.90;;;;;;;;;;10407248;28;20959;-77
2022/01/23 16:23:44;;;;;;;6.13;5.53;;;;;;;;;;10409496;28;20198;-79
2022/01/23 16:28:47;;;;;;;5.97;4.90;;;;;;;;;;10413274;28;20209;-77
2022/01/23 16:33:48;;;;;;;4.57;4.25;;;;;;;;;;10394122;28;20221;-78
2022/01/23 16:38:49;;;;;;;5.13;4.78;;;;;;;;;;10415497;28;20195;-79
2022/01/23 16:43:50;;;;;;;5.70;4.30;;;;;;;;;;10439337;28;20261;-78
2022/01/23 16:48:51;;;;;;;5.60;4.38;;;;;;;;;;10478931;28;20869;-77
2022/01/23 16:53:52;;;;;;;6.07;5.57;;;;;;;;;;10473189;28;20189;-77
2022/01/23 16:58:53;;;;;;;6.38;5.57;;;;;;;;;;10438563;28;20475;-77
2022/01/23 17:03:56;;;;;;;5.93;5.32;;;;;;;;;;10471916;28;20217;-77
2022/01/23 17:08:57;;;;;;;7.43;5.13;;;;;;;;;;10470914;28;20217;-78
2022/01/23 17:13:58;;;;;;;7.32;5.93;;;;;;;;;;10450941;28;20190;-79
2022/01/23 17:18:59;;;;;;;6.65;5.80;;;;;;;;;;10463671;28;20194;-78
2022/01/23 17:24:00;;;;;;;5.85;5.35;;;;;;;;;;10482207;28;20192;-79
2022/01/23 17:29:01;;;;;;;8.55;6.72;;;;;;;;;;10461940;28;20232;-78
2022/01/23 17:34:02;;;;;;;6.32;5.78;;;;;;;;;;10483770;28;21023;-78
2022/01/23 17:39:03;;;;;;;9.93;6.75;;;;;;;;;;10448840;28;20280;-80
2022/01/23 17:44:04;;;;;;;9.82;5.07;;;;;;;;;;10480820;28;20213;-77
2022/01/23 17:49:09;;;;;;;12.25;6.22;;;;;;;;;;10461705;28;20209;-79
2022/01/23 17:54:20;;;;;;;15.75;6.90;;;;;;;;;;10464064;28;20213;-80
2022/01/23 17:59:22;;;;;;;15.48;9.77;;;;;;;;;;10485059;28;20190;-78
2022/01/23 18:04:23;;;;;;;21.10;13.30;;;;;;;;;;10484013;28;20216;-76
2022/01/23 18:09:24;;;;;;;22.63;11.23;;;;;;;;;;10484532;28;20209;-79
2022/01/23 18:14:25;;;;;;;25.27;14.30;;;;;;;;;;10468433;28;20194;-77
2022/01/23 18:19:26;;;;;;;22.23;12.48;;;;;;;;;;10464544;28;20236;-77
2022/01/23 18:24:27;;;;;;;25.95;13.95;;;;;;;;;;10479141;28;20190;-78
2022/01/23 18:29:29;;;;;;;17.20;9.50;;;;;;;;;;10454889;28;20264;-78
2022/01/23 18:34:30;;;;;;;18.02;9.25;;;;;;;;;;10447277;28;20213;-77
2022/01/23 18:39:31;;;;;;;18.33;9.57;;;;;;;;;;10452149;28;20200;-79
2022/01/23 18:44:33;;;;;;;18.80;10.18;;;;;;;;;;10479814;28;20948;-77
2022/01/23 18:49:34;;;;;;;19.50;9.80;;;;;;;;;;10469907;28;20228;-77
2022/01/23 18:54:41;;;;;;;20.98;10.93;;;;;;;;;;10469618;28;20198;-80
2022/01/23 18:59:52;;;;;;;23.73;12.20;;;;;;;;;;10475664;28;20194;-77
2022/01/23 19:05:04;;;;;;;28.27;13.57;;;;;;;;;;10475612;28;20221;-77
2022/01/23 19:10:05;;;;;;;33.03;14.68;;;;;;;;;;10472481;28;20206;-78
2022/01/23 19:15:06;;;;;;;37.10;16.10;;;;;;;;;;10471008;28;20716;-79
2022/01/23 19:20:09;;;;;;;37.35;16.17;;;;;;;;;;10452925;28;20221;-78
2022/01/23 19:25:11;;;;;;;38.20;15.50;;;;;;;;;;10444864;28;20205;-78
2022/01/23 19:30:16;;;;;;;32.58;14.38;;;;;;;;;;10449530;28;20190;-80
2022/01/23 19:35:17;;;;;;;31.25;14.55;;;;;;;;;;10439006;28;20198;-81
2022/01/23 19:40:24;;;;;;;34.60;16.08;;;;;;;;;;10456655;28;20199;-80
2022/01/23 19:45:25;;;;;;;28.80;13.88;;;;;;;;;;10435091;28;20222;-80
2022/01/23 19:50:26;;;;;;;34.03;15.07;;;;;;;;;;10409961;28;20201;-80
2022/01/23 19:55:27;;;;;;;33.40;15.52;;;;;;;;;;10410525;28;20205;-80
2022/01/23 20:00:29;;;;;;;33.88;15.75;;;;;;;;;;10409085;28;20252;-79
2022/01/23 20:05:30;;;;;;;31.10;15.68;;;;;;;;;;10405200;28;20225;-78
2022/01/23 20:15:39;;;;;;;41.90;16.48;;;;;;;;;;10411970;28;20194;-81
2022/01/23 20:20:40;;;;;;;36.58;16.75;;;;;;;;;;10417455;28;20871;-80
2022/01/23 20:25:42;;;;;;;38.15;16.38;;;;;;;;;;10415313;28;20210;-80
2022/01/23 20:30:43;;;;;;;43.60;17.40;;;;;;;;;;10418448;28;20214;-80
2022/01/23 20:35:44;;;;;;;36.92;16.88;;;;;;;;;;10423187;28;20296;-80
2022/01/23 20:41:06;;;;;;;38.75;17.30;;;;;;;;;;10406680;28;20198;-80
2022/01/23 20:46:06;;;;;;;39.13;18.38;;;;;;;;;;10409361;28;20234;-80
2022/01/23 20:51:07;;;;;;;32.03;15.98;;;;;;;;;;10436683;28;20190;-80
2022/01/23 20:56:10;;;;;;;31.85;15.25;;;;;;;;;;10431593;28;20198;-79
2022/01/23 21:01:14;;;;;;;47.20;17.20;;;;;;;;;;10429919;28;20206;-79
2022/01/23 21:06:16;;;;;;;38.75;16.55;;;;;;;;;;10436810;28;20271;-80
2022/01/23 21:11:23;;;;;;;40.25;17.85;;;;;;;;;;10424741;28;20213;-80
2022/01/23 21:16:36;;;;;;;36.45;16.70;;;;;;;;;;10396723;28;20232;-80
2022/01/23 21:42:23;;;;;;;32.88;13.80;;;;;;;;;;10487311;28;20211;-80
2022/01/23 21:47:24;;;;;;;40.00;16.05;;;;;;;;;;10469888;28;20427;-79
2022/01/23 21:52:25;;;;;;;46.40;15.73;;;;;;;;;;10489236;28;20193;-78
2022/01/23 21:57:26;;;;;;;58.83;17.42;;;;;;;;;;10484721;28;20610;-79
2022/01/23 22:02:27;;;;;;;49.33;18.85;;;;;;;;;;10476606;28;20977;-79
2022/01/23 22:07:28;;;;;;;44.47;17.73;;;;;;;;;;10481831;28;20237;-79
2022/01/23 22:17:30;;;;;;;35.25;15.45;;;;;;;;;;10488009;28;20204;-79
2022/01/23 22:27:41;;;;;;;31.50;14.55;;;;;;;;;;10466817;28;20217;-79
2022/01/23 22:32:42;;;;;;;34.55;14.93;;;;;;;;;;10465344;28;20213;-79
2022/01/23 22:37:48;;;;;;;32.63;13.93;;;;;;;;;;10474662;28;20228;-79
2022/01/23 22:42:49;;;;;;;29.33;13.48;;;;;;;;;;10471617;28;20253;-79
2022/01/23 22:47:50;;;;;;;21.63;11.57;;;;;;;;;;10456057;28;20210;-78
2022/01/23 22:52:51;;;;;;;25.98;11.27;;;;;;;;;;10471508;28;20204;-79
2022/01/23 22:57:52;;;;;;;22.38;11.70;;;;;;;;;;10483567;28;20197;-79
2022/01/23 23:02:53;;;;;;;18.38;10.40;;;;;;;;;;10479648;28;20326;-79
2022/01/23 23:07:54;;;;;;;24.05;11.57;;;;;;;;;;10480304;28;20197;-79
2022/01/23 23:12:55;;;;;;;28.40;11.48;;;;;;;;;;10451765;28;20202;-79
2022/01/23 23:18:00;;;;;;;27.67;11.75;;;;;;;;;;10476183;28;20190;-79
2022/01/23 23:23:02;;;;;;;29.60;12.02;;;;;;;;;;10475151;28;20206;-79
2022/01/23 23:28:04;;;;;;;31.65;13.45;;;;;;;;;;10474267;28;20218;-77
2022/01/23 23:33:05;;;;;;;28.85;12.30;;;;;;;;;;10445634;28;20202;-78
2022/01/23 23:38:06;;;;;;;29.45;12.05;;;;;;;;;;10469958;28;20220;-77
2022/01/23 23:43:17;;;;;;;28.00;11.95;;;;;;;;;;10468626;28;20229;-78
2022/01/23 23:48:20;;;;;;;29.63;12.93;;;;;;;;;;10436566;28;20201;-79
2022/01/23 23:53:25;;;;;;;22.95;11.35;;;;;;;;;;10455680;28;20353;-78
2022/01/23 23:58:26;;;;;;;20.40;10.85;;;;;;;;;;10457887;28;20198;-78
